Resultados 13 Janeiro de 2020

Pos. Dorsal Nome Sx. Id. Escalão P.Esc. Certificado Video Tempo Tempo Liquido Tempo Intermédio
1 34 ANTÓNIO E F CARDOSO M 22 M1839 1 00:34:38 00:34:38 5Km: 00:18:06
2 313 QUELTON L D LOMBA M 19 M1839 2 00:35:02 00:35:02 5Km: 00:18:06
3 424 KUENY PIRES MIRANDA M 32 M1839 3 00:35:39 00:35:39 5Km: 00:18:23
4 394 KEVEN ISAÍAS NEVES M 24 M1839 4 00:36:13 00:36:13 5Km: 00:19:04
5 304 PAULINO G SEMEDO M 22 M1839 5 00:36:22 00:36:22 5Km: 00:19:00
6 397 JOSÉ LUIS PEREIRA SEMEDO M 38 M1839 6 00:36:43 00:36:43 5Km: 00:19:03
7 421 DOMINGOS RODRIGUES DUARTE M 23 M1839 7 00:37:18 00:37:18 5Km: 00:19:03
8 3 NELSON D C SILVA M 33 M1839 8 00:37:25 00:37:25 5Km: 00:19:53
9 70 DANIEL D P MONTEIRO M 25 M1839 9 00:37:48 00:37:48 5Km: 00:19:52
10 184 JACELINO T D HORTA M 23 M1839 10 00:38:08 00:38:08 5Km: 00:19:24
11 208 JOSÉ D L ROSÁRIO M 24 M1839 11 00:38:38 00:38:38 5Km: 00:19:32
12 134 ESMAEL A D MONTEIRO M 26 M1839 12 00:38:48 00:38:48 5Km: 00:20:24
13 180 ISAIAS M SEMEDO M 27 M1839 13 00:39:00 00:39:00 5Km: 00:20:27
14 153 GERSON D M MONTEIRO M 26 M1839 14 00:39:26 00:39:26 5Km: 00:20:22
15 291 NILSON PEREIRA M 24 M1839 15 00:39:32 00:39:32 5Km: 00:20:40
16 398 DIEGO RODRIGO DE OLIVEIRA M 33 M1839 16 00:39:51 00:39:51 5Km: –
17 388 CARLOS ARAUJO M 33 M1839 17 00:39:57 00:39:57 5Km: 00:21:09
18 53 CARLOS D L MOTA M 35 M1839 18 00:40:22 00:40:22 5Km: 00:21:30
19 390 JOSÉ E V ROSÁRIO M 43 M4099 1 00:40:30 00:40:30 5Km: –
20 135 EUCLIDES J G TAVARES M 24 M1839 19 00:40:37 00:40:37 5Km: 00:21:31
21 791 HERNANI GOMES M 25 M1839 20 00:40:55 00:40:55 5Km: 00:21:34
22 396 CLAUSSANDRO DA VEIGA MOREIRA M 21 M1839 21 00:40:56 00:40:56 5Km: 00:20:32
23 168 HELTON D S BARBOSA M 21 M1839 22 00:41:04 00:41:04 5Km: 00:21:33
24 108 EDMILSON G C CABRAL M 26 M1839 23 00:41:35 00:41:35 5Km: 00:21:37
25 409 LENINE OLIVIER ANDRADE SANTOS M 42 M4099 2 00:42:07 00:42:07 5Km: 00:21:56
26 21 AMARILIO J D SEMEDO M 34 M1839 24 00:42:41 00:42:41 5Km: 00:22:20
27 393 ÂNGELO ANTÓNIO MONTEIRO TAVARES M 19 M1839 25 00:43:04 00:43:04 5Km: –
28 237 LUIS A L CABRAL M 30 M1839 26 00:43:10 00:43:10 5Km: 00:22:39
29 794 BRUNO R ROSALINA M 40 M4099 3 00:43:20 00:43:20 5Km: 00:22:34
30 781 ESMAEL CORREIA M 18 M1839 27 00:43:23 00:43:23 5Km: 00:22:17
31 454 PAULO LOPES M 25 M1839 28 00:43:34 00:43:34 5Km: 00:23:25
32 433 LEMUEL SANTOS ROSÁRIO M 42 M4099 4 00:43:48 00:43:48 5Km: 00:22:40
33 132 ERMELINDO J T CORREIA M 29 M1839 29 00:44:05 00:44:05 5Km: 00:20:57
34 450 EDMILSON ESPIRITO SANTO SEMEDO DA VEIGA M 20 M1839 30 00:44:48 00:44:48 5Km: 00:23:16
35 426 LIRIEL HELAINE DOS SANTOS DIOGO F 18 F1834 1 00:44:54 00:44:54 5Km: 00:22:48
36 465 LUIS A L SEMEDO M 25 M1839 31 00:45:20 00:45:20 5Km: 00:23:15
37 503 ALEIDA A R SANTOS F 28 F1834 2 00:45:23 00:45:23 5Km: 00:23:21
38 401 OTÍLIO CORREIA DA VEIGA M 36 M1839 32 00:45:45 00:45:45 5Km: 00:23:46
39 192 JESSARA R X SANTOS F 19 F1834 3 00:46:04 00:46:04 5Km: 00:23:13
40 431 ISAÍAS MONTEIRO M 18 M1839 33 00:46:08 00:46:08 5Km: 00:24:08
41 402 KELVIS TAVARES ROBALO M 26 M1839 34 00:46:11 00:46:11 5Km: 00:24:07
42 469 SAMORA JORGE TAVARES M 32 M1839 35 00:46:19 00:46:19 5Km: 00:24:27
43 492 JIMMY MONTEIRO M 19 M1839 36 00:46:43 00:46:43 5Km: 00:23:22
44 52 CARLOS C LOPES M 29 M1839 37 00:46:46 00:46:46 5Km: 00:24:28
45 427 AMANDIO HIDOLFO JORGE SOARES FREDERICO M 27 M1839 38 00:47:15 00:47:15 5Km: 00:25:14
46 5 ADELGISA V VARELA F 26 F1834 4 00:47:28 00:47:28 5Km: 00:25:07
47 244 MANUEL J S CORREIA M 50 M4099 5 00:47:41 00:47:41 5Km: 00:25:04
48 464 ALDAIR DELGADO M 23 M1839 39 00:47:58 00:47:58 5Km: 00:24:53
49 425 GINQUIEL GONÇALVES PEREIRA M 34 M1839 40 00:48:03 00:48:03 5Km: 00:25:11
50 404 JOSÉ PEDRO FURTADO BRANDÃO M 19 M1839 41 00:48:05 00:48:05 5Km: 00:26:30
51 463 DANIEL PACO M 32 M1839 42 00:48:09 00:48:09 5Km: 00:25:02
52 466 BERNARDETE LOPES NUNES F 20 F1834 5 00:48:14 00:48:14 5Km: 00:24:07
53 468 VAGNER DA MOURA MONTEIRO M 30 M1839 43 00:48:18 00:48:18 5Km: 00:24:21
54 222 KEVIN J L CUNHA M 23 M1839 44 00:48:33 00:48:33 5Km: 00:25:45
55 4 ABDURAMANE DJALO M 22 M1839 45 00:48:34 00:48:34 5Km: 00:24:54
56 796 AMILTON R SILVA M 18 M1839 46 00:49:08 00:49:08 5Km: –
57 311 PEDRO V DELGADO M 55 M4099 6 00:49:34 00:49:34 5Km: 00:25:20
58 789 DAVIDSON MORAIS M 38 M1839 47 00:49:37 00:49:37 5Km: 00:26:02
59 491 ANGELO SEMEDO M 34 M1839 48 00:50:07 00:50:07 5Km: 00:25:05
60 273 MARLICIA SANCHES F 20 F1834 6 00:50:11 00:50:11 5Km: 00:25:46
61 489 ELTON DELGADO M 29 M1839 49 00:50:42 00:50:42 5Km: 00:25:33
62 202 JOÃO RAMOS M 27 M1839 50 00:50:47 00:50:47 5Km: 00:25:38
63 462 ÁLVARO LIMA M 30 M1839 51 00:50:48 00:50:48 5Km: 00:25:24
64 133 ESAIAS A M CORREIA M 25 M1839 52 00:51:09 00:51:09 5Km: 00:25:55
65 76 DANIELA S FURTADO F 22 F1834 7 00:51:53 00:51:53 5Km: 00:25:40
66 146 FILOMENA VIEIRA F 46 F3599 1 00:52:15 00:52:15 5Km: 00:26:45
67 124 EMANUEL E P PINA M 35 M1839 53 00:52:25 00:52:25 5Km: 00:27:54
68 793 IVALDINO C RODRIGUES M 28 M1839 54 00:52:34 00:52:34 5Km: 00:26:15
69 411 CARMELITA SANTOS F 25 F1834 8 00:52:57 00:52:57 5Km: 00:26:51
70 795 BRUNO H FORTES M 24 M1839 55 00:53:10 00:53:10 5Km: 00:26:41
71 12 ADMILSON C M BARBOSA M 22 M1839 56 00:53:11 00:53:11 5Km: 00:26:40
72 798 EMANUEL S ANDRADE M 27 M1839 57 00:53:16 00:53:16 5Km: 00:27:35
73 420 SULEILMANE CAMARA M 40 M4099 7 00:53:37 00:53:37 5Km: 00:26:47
74 115 ELISEU T CHAVES M 39 M1839 58 00:54:12 00:54:12 5Km: 00:27:04
75 326 ROSA L SANTOS F 45 F3599 2 00:54:12 00:54:12 5Km: 00:27:36
76 446 AMILDO PIRES M 30 M1839 59 00:54:32 00:54:32 5Km: 00:27:34
77 177 INILDO GOMES MIRANDA M 20 M1839 60 00:55:04 00:55:04 5Km: 00:28:19
78 392 CARLOS LOPES M 20 M1839 61 00:55:07 00:55:07 5Km: 00:27:13
79 158 GILSON B T VARELA M 32 M1839 62 00:55:44 00:55:44 5Km: 00:30:15
80 74 DANIEL MACHADO M 39 M1839 63 00:55:53 00:55:53 5Km: 00:27:58
81 187 JAIME PUYOLES M 57 M4099 8 00:56:25 00:56:25 5Km: 00:29:45
82 429 ESMAEL BORGES M 18 M1839 64 00:57:09 00:57:09 5Km: 00:27:41
83 349 STEPHANY C TAVARES M 19 M1839 65 00:58:42 00:58:42 5Km: 00:35:15
84 14 AILTON J P BARBOSA M 32 M1839 66 00:59:20 00:59:20 5Km: 00:29:16
85 252 MARCIO TAVARES M 23 M1839 67 00:59:23 00:59:23 5Km: 00:28:15
86 467 JACINTO ROCHA M 43 M4099 9 00:59:53 00:59:53 5Km: 00:31:42
87 220 KEILINE A M CABRAL M 25 M1839 68 00:59:54 00:59:54 5Km: 00:31:43
88 64 CHRISTOPHER OLIVEIRA M 33 M1839 69 01:00:14 01:00:14 5Km: 00:30:41
89 162 GREGÓRIO M G MOREIRA M 51 M4099 10 01:00:15 01:00:15 5Km: 00:29:40
90 310 PEDRO F ALMEIDA M 31 M1839 70 01:00:24 01:00:24 5Km: 00:30:15
91 195 JESSIOMAR R VIEIRA M 30 M1839 71 01:01:11 01:01:11 5Km: –
92 122 EMANUEL D J BORGES M 26 M1839 72 01:01:44 01:01:44 5Km: 00:31:44
93 117 ELVIS C ARAUJO M 18 M1839 73 01:02:02 01:02:02 5Km: 00:33:30
94 410 CARLOS A R SILVA M 50 M4099 11 01:02:18 01:02:18 5Km: 00:33:40
95 490 ADELINO SEMEDO M 38 M1839 74 01:02:32 01:02:32 5Km: 00:31:01
96 571 WOLFGANG SCHARTMUELLER M 62 M4099 12 01:03:00 01:03:00 5Km: 00:31:22
97 391 JOSE O D FURTADO M 52 M4099 13 01:03:49 01:03:49 5Km: 00:32:51
98 408 VICTOR ELIAS GOMES M 24 M1839 75 01:04:12 01:04:12 5Km: 00:32:41
99 461 CRISANTO ANTÓNIO LOPES DOS SANTOS M 40 M4099 14 01:05:28 01:05:28 5Km: 00:34:05
100 434 JÓSE MANUEL PIRES M 56 M4099 15 01:05:53 01:05:53 5Km: 00:33:26
101 412 DANIELLE LANDIM GOMES F 20 F1834 9 01:08:38 01:08:38 5Km: 00:34:38
102 797 NUNO M M SOARES M 31 M1839 76 01:08:38 01:08:38 5Km: 00:35:56
103 414 DEINA MARAICA ALMEIDA BARROS F 40 F3599 3 01:11:02 01:11:02 5Km: 00:36:34
104 416 NELSON LÍVIO OLIVEIRA RAMOS M 39 M1839 77 01:11:02 01:11:02 5Km: 00:36:33
105 178 ISAAC R L BENHOLIEL M 55 M4099 16 01:11:10 01:11:10 5Km: 00:36:33
106 243 MANUEL C D JÚNIOR M 24 M1839 78 01:11:37 01:11:37 5Km: 00:37:43
107 437 VICTOR BARROS VARELA M 48 M4099 17 01:12:33 01:12:33 5Km: 00:37:02
108 366 VICTORINO D PINARAMOS M 49 M4099 18 01:12:55 01:12:55 5Km: 00:37:29
109 415 RICARDO NUNO DUARTE LIMA M 42 M4099 19 01:13:10 01:13:10 5Km: 00:36:47
110 300 PATRÍCIA MACEDO F 45 F3599 4 01:19:44 01:19:44 5Km: 00:42:10
111 307 PAULO D G COSTA M 42 M4099 20 01:20:43 01:20:43 5Km: 00:39:53
112 406 PAULO JORGE LIMA GONÇALVES M 43 M4099 21 01:32:05 01:32:05 5Km: